地図

経路データ

SID SEASON NUMBER BASIN SUBBASIN NAME ISO_TIME NATURE LAT LON WMO_WIND WMO_PRES WMO_AGENCY TRACK_TYPE DIST2LAND LANDFALL IFLAG USA_AGENCY USA_ATCF_ID USA_LAT USA_LON USA_RECORD USA_STATUS USA_WIND USA_PRES USA_SSHS USA_R34_NE USA_R34_SE USA_R34_SW USA_R34_NW USA_R50_NE USA_R50_SE USA_R50_SW USA_R50_NW USA_R64_NE USA_R64_SE USA_R64_SW USA_R64_NW USA_POCI USA_ROCI USA_RMW USA_EYE TOKYO_LAT TOKYO_LON TOKYO_GRADE TOKYO_WIND TOKYO_PRES TOKYO_R50_DIR TOKYO_R50_LONG TOKYO_R50_SHORT TOKYO_R30_DIR TOKYO_R30_LONG TOKYO_R30_SHORT TOKYO_LAND CMA_LAT CMA_LON CMA_CAT CMA_WIND CMA_PRES HKO_LAT HKO_LON HKO_CAT HKO_WIND HKO_PRES NEWDELHI_LAT NEWDELHI_LON NEWDELHI_GRADE NEWDELHI_WIND NEWDELHI_PRES NEWDELHI_CI NEWDELHI_DP NEWDELHI_POCI REUNION_LAT REUNION_LON REUNION_TYPE REUNION_WIND REUNION_PRES REUNION_TNUM REUNION_CI REUNION_RMW REUNION_R34_NE REUNION_R34_SE REUNION_R34_SW REUNION_R34_NW REUNION_R50_NE REUNION_R50_SE REUNION_R50_SW REUNION_R50_NW REUNION_R64_NE REUNION_R64_SE REUNION_R64_SW REUNION_R64_NW BOM_LAT BOM_LON BOM_TYPE BOM_WIND BOM_PRES BOM_TNUM BOM_CI BOM_RMW BOM_R34_NE BOM_R34_SE BOM_R34_SW BOM_R34_NW BOM_R50_NE BOM_R50_SE BOM_R50_SW BOM_R50_NW BOM_R64_NE BOM_R64_SE BOM_R64_SW BOM_R64_NW BOM_ROCI BOM_POCI BOM_EYE BOM_POS_METHOD BOM_PRES_METHOD NADI_LAT NADI_LON NADI_CAT NADI_WIND NADI_PRES WELLINGTON_LAT WELLINGTON_LON WELLINGTON_WIND WELLINGTON_PRES DS824_LAT DS824_LON DS824_STAGE DS824_WIND DS824_PRES TD9636_LAT TD9636_LON TD9636_STAGE TD9636_WIND TD9636_PRES TD9635_LAT TD9635_LON TD9635_WIND TD9635_PRES TD9635_ROCI NEUMANN_LAT NEUMANN_LON NEUMANN_CLASS NEUMANN_WIND NEUMANN_PRES MLC_LAT MLC_LON MLC_CLASS MLC_WIND MLC_PRES USA_GUST BOM_GUST BOM_GUST_PER REUNION_GUST REUNION_GUST_PER USA_SEAHGT USA_SEARAD_NE USA_SEARAD_SE USA_SEARAD_SW USA_SEARAD_NW STORM_SPEED STORM_DIR
1882233N21294 1882 24 NA NA NOT_NAMED 1882-08-20 12:00:00 TS 21.5000 -66.0000 main 346 346 _____________O -1 21.5000 -66.0000 TD 30 3 76
1882233N21294 1882 24 NA NA NOT_NAMED 1882-08-20 15:00:00 TS 21.5375 -65.8375 main 346 346 _____________P -1 21.5375 -65.8375 TD 30 3 70
1882233N21294 1882 24 NA NA NOT_NAMED 1882-08-20 18:00:00 TS 21.6000 -65.7000 main 357 357 _____________O -1 21.6000 -65.7000 TD 30 3 54
1882233N21294 1882 24 NA NA NOT_NAMED 1882-08-20 21:00:00 TS 21.7000 -65.6000 main 369 369 _____________P -1 21.7000 -65.6000 TD 32 3 43
1882233N21294 1882 24 NA NA NOT_NAMED 1882-08-21 00:00:00 TS 21.8000 -65.5000 main 380 380 _____________O -1 21.8000 -65.5000 TS 35 3 56
1882233N21294 1882 24 NA NA NOT_NAMED 1882-08-21 03:00:00 TS 21.8575 -65.3500 main 392 392 _____________P -1 21.8575 -65.3500 TS 35 3 70
1882233N21294 1882 24 NA NA NOT_NAMED 1882-08-21 06:00:00 TS 21.9000 -65.2000 main 393 382 _____________O -1 21.9000 -65.2000 TS 35 2 114
1882233N21294 1882 24 NA NA NOT_NAMED 1882-08-21 09:00:00 TS 21.7919 -65.1879 main 382 382 _____________P -1 21.7919 -65.1879 TS 37 2 61
1882233N21294 1882 24 NA NA NOT_NAMED 1882-08-21 12:00:00 TS 22.0000 -65.0000 main 407 407 _____________O -1 22.0000 -65.0000 TS 40 14 34
1882233N21294 1882 24 NA NA NOT_NAMED 1882-08-21 15:00:00 TS 22.9507 -64.3495 main 531 531 _____________P -1 22.9507 -64.3495 TS 42 26 32
1882233N21294 1882 24 NA NA NOT_NAMED 1882-08-21 18:00:00 TS 24.2000 -63.5000 main 684 684 _____________O -1 24.2000 -63.5000 TS 45 27 32
1882233N21294 1882 24 NA NA NOT_NAMED 1882-08-21 21:00:00 TS 25.2571 -62.7486 main 827 827 _____________P -1 25.2571 -62.7486 TS 50 25 33
1882233N21294 1882 24 NA NA NOT_NAMED 1882-08-22 00:00:00 TS 26.3000 -62.0000 main 957 957 _____________O -1 26.3000 -62.0000 TS 55 25 33
1882233N21294 1882 24 NA NA NOT_NAMED 1882-08-22 03:00:00 TS 27.3496 -61.2486 main 1091 1091 _____________P -1 27.3496 -61.2486 TS 57 25 32
1882233N21294 1882 24 NA NA NOT_NAMED 1882-08-22 06:00:00 TS 28.4000 -60.5000 main 1232 1232 _____________O -1 28.4000 -60.5000 TS 60 25 33
1882233N21294 1882 24 NA NA NOT_NAMED 1882-08-22 09:00:00 TS 29.4730 -59.6689 main 1376 1376 _____________P -1 29.4730 -59.6689 TS 62 25 32
1882233N21294 1882 24 NA NA NOT_NAMED 1882-08-22 12:00:00 TS 30.5000 -59.0000 main 1506 1466 _____________O -1 30.5000 -59.0000 HU 65 21 23
1882233N21294 1882 24 NA NA NOT_NAMED 1882-08-22 15:00:00 TS 31.4441 -58.7146 main 1466 1376 _____________P -1 31.4441 -58.7146 HU 65 18 11
1882233N21294 1882 24 NA NA NOT_NAMED 1882-08-22 18:00:00 TS 32.3000 -58.6000 main 1376 1313 _____________O -1 32.3000 -58.6000 HU 65 16 9
1882233N21294 1882 24 NA NA NOT_NAMED 1882-08-22 21:00:00 TS 33.0649 -58.4068 main 1303 1241 _____________P -1 33.0649 -58.4068 HU 65 15 13
1882233N21294 1882 24 NA NA NOT_NAMED 1882-08-23 00:00:00 TS 33.8000 -58.2000 main 1241 1181 _____________O -1 33.8000 -58.2000 HU 65 16 14
1882233N21294 1882 24 NA NA NOT_NAMED 1882-08-23 03:00:00 TS 34.5925 -57.9500 main 1172 1110 _____________P -1 34.5925 -57.9500 HU 65 17 14
1882233N21294 1882 24 NA NA NOT_NAMED 1882-08-23 06:00:00 TS 35.4000 -57.7000 main 1110 1055 _____________O -1 35.4000 -57.7000 HU 65 16 14
1882233N21294 1882 24 NA NA NOT_NAMED 1882-08-23 09:00:00 TS 36.1775 -57.4772 main 1045 965 _____________P -1 36.1775 -57.4772 HU 65 16 11
1882233N21294 1882 24 NA NA NOT_NAMED 1882-08-23 12:00:00 TS 37.0000 -57.3000 main 965 873 _____________O -1 37.0000 -57.3000 HU 65 18 8
1882233N21294 1882 24 NA NA NOT_NAMED 1882-08-23 15:00:00 TS 37.9275 -57.1771 main 873 784 _____________P -1 37.9275 -57.1771 HU 65 19 5
1882233N21294 1882 24 NA NA NOT_NAMED 1882-08-23 18:00:00 TS 38.9000 -57.1000 main 773 687 _____________O -1 38.9000 -57.1000 HU 65 19 3
1882233N21294 1882 24 NA NA NOT_NAMED 1882-08-23 21:00:00 TS 39.8575 -57.0421 main 677 600 _____________P -1 39.8575 -57.0421 HU 65 19 2
1882233N21294 1882 24 NA NA NOT_NAMED 1882-08-24 00:00:00 TS 40.8000 -57.0000 main 591 509 _____________O -1 40.8000 -57.0000 HU 65 18 2
1882233N21294 1882 24 NA NA NOT_NAMED 1882-08-24 03:00:00 TS 41.7000 -56.9498 main 515 443 _____________P -1 41.7000 -56.9498 HU 62 18 3
1882233N21294 1882 24 NA NA NOT_NAMED 1882-08-24 06:00:00 TS 42.6000 -56.9000 main 434 356 _____________O -1 42.6000 -56.9000 TS 60 19 3
1882233N21294 1882 24 NA NA NOT_NAMED 1882-08-24 09:00:00 TS 43.6175 -56.8282 main 356 269 _____________P -1 43.6175 -56.8282 TS 57 19 2
1882233N21294 1882 24 NA NA NOT_NAMED 1882-08-24 12:00:00 TS 44.5000 -56.8000 main 269 220 _____________O -1 44.5000 -56.8000 TS 55 14 358
1882233N21294 1882 24 NA NA NOT_NAMED 1882-08-24 15:00:00 TS 45.0250 -56.8771 main 220 184 _____________P -1 45.0250 -56.8771 TS 52 9 351
1882233N21294 1882 24 NA NA NOT_NAMED 1882-08-24 18:00:00 ET 45.4000 -57.0000 main 184 154 _____________O -1 45.4000 -57.0000 EX 50 8 349
1882233N21294 1882 24 NA NA NOT_NAMED 1882-08-24 21:00:00 ET 45.8500 -57.1002 main 154 119 _____________P -1 45.8500 -57.1002 EX 47 9 352
1882233N21294 1882 24 NA NA NOT_NAMED 1882-08-25 00:00:00 ET 46.3000 -57.2000 main 119 93 _____________O -1 46.3000 -57.2000 EX 45 9 351
1882233N21294 1882 24 NA NA NOT_NAMED 1882-08-25 03:00:00 ET 46.7575 -57.3074 main 83 44 _____________P -1 46.7575 -57.3074 EX 42 9 352
1882233N21294 1882 24 NA NA NOT_NAMED 1882-08-25 06:00:00 ET 47.2000 -57.4000 main 44 0 _____________O -1 47.2000 -57.4000 EX 40 9 349
1882233N21294 1882 24 NA NA NOT_NAMED 1882-08-25 09:00:00 ET 47.5997 -57.5382 main 0 0 _____________P -1 47.5997 -57.5382 EX 37 8 355
1882233N21294 1882 24 NA NA NOT_NAMED 1882-08-25 12:00:00 ET 48.0000 -57.5000 main 0 0 _____________O -1 48.0000 -57.5000 EX 35 9 20
1882233N21294 1882 24 NA NA NOT_NAMED 1882-08-25 15:00:00 ET 48.4430 -57.0838 main 0 0 _____________P -1 48.4430 -57.0838 EX 32 11 36
1882233N21294 1882 24 NA NA NOT_NAMED 1882-08-25 18:00:00 ET 48.9000 -56.5000 main 0 0 _____________O -1 48.9000 -56.5000 EX 30 12 39
1882233N21294 1882 24 NA NA NOT_NAMED 1882-08-25 21:00:00 ET 49.3524 -55.9731 main 0 0 _____________P -1 49.3524 -55.9731 EX 27 11 36
1882233N21294 1882 24 NA NA NOT_NAMED 1882-08-26 00:00:00 ET 49.8000 -55.5000 main 18 _____________O -1 49.8000 -55.5000 EX 25 11 34

IBTrACS Databaseについて

本データベースは、米国NOAAが公開する1842年以降の世界の熱帯低気圧のベストトラックデータアーカイブInternational Best Track Archive for Climate Stewardship (IBTrACS)を、ウェブで閲覧しやすい形式に変換したものです。

最終更新日:2021-11-26